createdAt,value
2019-04-04T00:01:31.933Z,96462.19
2019-04-04T00:04:02.766Z,96465.92
2019-04-04T00:48:58.662Z,96461.38
2019-04-04T00:51:29.502Z,96455.36
2019-04-04T00:54:00.389Z,96445.92
2019-04-04T00:56:31.237Z,96454.91
2019-04-04T00:59:02.190Z,96456.05
2019-04-04T01:01:33.024Z,96449.20
2019-04-04T01:04:03.952Z,96451.48
2019-04-04T01:06:34.973Z,96437.97
2019-04-04T01:09:11.282Z,96432.34
2019-04-04T01:11:39.471Z,96420.23
2019-04-04T01:14:10.398Z,96410.63
2019-04-04T01:16:41.231Z,96411.56
2019-04-04T01:19:12.143Z,96402.86
2019-04-04T01:21:42.974Z,96404.70
2019-04-04T01:24:13.907Z,96399.65
2019-04-04T01:26:44.731Z,96405.59
2019-04-04T01:29:15.569Z,96393.03
2019-04-04T01:31:46.633Z,96391.73
2019-04-04T01:34:18.819Z,96385.09
2019-04-04T01:36:50.049Z,96385.47
2019-04-04T01:39:20.908Z,96385.84
2019-04-04T01:41:51.734Z,96386.16
2019-04-04T01:44:22.586Z,96376.45
2019-04-04T01:46:53.417Z,96378.54
2019-04-04T01:49:24.288Z,96382.50
2019-04-04T01:51:57.686Z,96381.28
2019-04-04T01:54:27.652Z,96385.27
2019-04-04T01:56:58.482Z,96381.73
2019-04-04T01:59:29.348Z,96374.78
2019-04-04T02:02:00.184Z,96365.65
2019-04-04T02:04:31.018Z,96373.25
2019-04-04T02:07:03.769Z,96368.65
2019-04-04T02:09:34.755Z,96359.06
2019-04-04T02:12:07.641Z,96364.89
2019-04-04T02:14:38.248Z,96360.84
2019-04-04T02:17:09.088Z,96360.28
2019-04-04T02:19:39.981Z,96344.52
2019-04-04T02:22:10.836Z,96328.70
2019-04-04T02:24:41.733Z,96319.95
2019-04-04T02:27:12.586Z,96314.13
2019-04-04T02:29:43.401Z,96311.80
2019-04-04T02:32:15.920Z,96315.72
2019-04-04T02:34:46.765Z,96318.16
2019-04-04T02:37:20.515Z,96307.81
2019-04-04T02:39:50.123Z,96312.64
2019-04-04T02:42:22.133Z,96309.82
2019-04-04T02:44:53.245Z,96303.55
2019-04-04T02:47:24.063Z,96286.11
2019-04-04T02:49:54.937Z,96281.20
2019-04-04T02:52:25.774Z,96277.70
2019-04-04T02:54:58.280Z,96273.58
2019-04-04T02:57:29.515Z,96267.19
2019-04-04T03:00:00.451Z,96271.45
2019-04-04T03:02:31.286Z,96270.02
2019-04-04T03:05:02.295Z,96262.47
2019-04-04T03:07:33.189Z,96245.64
2019-04-04T03:10:05.183Z,96254.33
2019-04-04T03:12:36.088Z,96250.66
2019-04-04T03:15:10.196Z,96241.30
2019-04-04T03:17:41.211Z,96234.67
2019-04-04T03:20:16.281Z,96241.69
2019-04-04T03:22:44.689Z,96236.51
2019-04-04T03:25:15.724Z,96237.59
2019-04-04T03:27:46.698Z,96234.08
2019-04-04T03:30:17.797Z,96240.31
2019-04-04T03:32:54.224Z,96250.02
2019-04-04T03:35:25.783Z,96243.91
2019-04-04T03:37:53.837Z,96244.94
2019-04-04T03:40:25.828Z,96256.13
2019-04-04T03:42:56.797Z,96252.95
2019-04-04T03:45:27.701Z,96251.44
2019-04-04T03:47:58.537Z,96237.88
2019-04-04T03:50:30.597Z,96230.30
2019-04-04T03:53:01.626Z,96218.93
2019-04-04T03:55:32.540Z,96217.09
2019-04-04T03:58:03.385Z,96222.83
2019-04-04T04:00:39.235Z,96236.83
2019-04-04T04:03:08.359Z,96226.36
2019-04-04T04:05:40.902Z,96224.06
2019-04-04T04:08:11.902Z,96213.09
2019-04-04T04:10:42.729Z,96203.37
2019-04-04T04:13:15.972Z,96199.11
2019-04-04T04:15:46.481Z,96206.41
2019-04-04T04:18:20.100Z,96208.16
2019-04-04T04:20:49.947Z,96205.50
2019-04-04T04:23:23.966Z,96198.95
2019-04-04T04:25:53.441Z,96200.86
2019-04-04T04:28:24.301Z,96207.80
2019-04-04T04:30:55.164Z,96202.52
2019-04-04T04:33:28.917Z,96187.98
2019-04-04T04:35:58.570Z,96172.28
2019-04-04T04:38:29.578Z,96151.03
2019-04-04T04:41:00.530Z,96139.25
2019-04-04T04:43:33.385Z,96147.48
2019-04-04T04:46:05.780Z,96148.23
2019-04-04T04:48:36.806Z,96156.83
2019-04-04T04:51:11.540Z,96163.22
2019-04-04T04:53:41.817Z,96163.14
2019-04-04T04:56:12.671Z,96152.87
2019-04-04T04:58:43.585Z,96148.98
2019-04-04T05:01:16.215Z,96136.14
2019-04-04T05:03:47.003Z,96122.73
2019-04-04T05:06:19.475Z,96120.89
2019-04-04T05:08:52.342Z,96123.70
2019-04-04T05:11:22.901Z,96131.55
2019-04-04T05:13:53.752Z,96128.33
2019-04-04T05:16:24.676Z,96123.61
2019-04-04T05:18:55.567Z,96132.09
2019-04-04T05:21:28.853Z,96126.95
2019-04-04T05:23:59.138Z,96119.52
2019-04-04T05:26:29.966Z,96113.89
2019-04-04T05:29:00.839Z,96113.42
2019-04-04T05:31:31.693Z,96101.97
2019-04-04T05:34:02.673Z,96094.30
2019-04-04T05:36:35.990Z,96096.13
2019-04-04T05:39:07.917Z,96104.19
2019-04-04T05:41:38.735Z,96097.80
2019-04-04T05:44:10.343Z,96077.08
2019-04-04T05:46:41.238Z,96068.20
2019-04-04T05:49:12.186Z,96069.60
2019-04-04T05:51:43.110Z,96066.55
2019-04-04T05:54:14.055Z,96061.34
2019-04-04T05:56:48.781Z,96063.54
2019-04-04T05:59:17.655Z,96063.06
2019-04-04T06:01:48.528Z,96049.46
2019-04-04T06:04:20.182Z,96054.89
2019-04-04T06:06:51.424Z,96050.64
2019-04-04T06:09:22.352Z,96037.75
2019-04-04T06:11:53.890Z,96034.28
2019-04-04T06:14:24.813Z,96036.64
2019-04-04T06:16:55.683Z,96032.45
2019-04-04T06:19:26.702Z,96033.41
2019-04-04T06:21:57.595Z,96027.25
2019-04-04T06:24:28.452Z,96025.32
2019-04-04T06:26:59.272Z,96027.14
2019-04-04T06:29:30.147Z,96022.27
2019-04-04T06:32:01.062Z,96022.64
2019-04-04T06:34:31.970Z,96014.07
2019-04-04T06:37:02.815Z,96004.30
2019-04-04T06:39:33.702Z,95999.48
2019-04-04T06:42:04.807Z,95985.38
2019-04-04T06:44:35.652Z,95992.64
2019-04-04T06:47:06.533Z,95981.91
2019-04-04T06:49:37.378Z,95981.72
2019-04-04T06:52:09.428Z,95977.13
2019-04-04T06:54:40.488Z,95976.02
2019-04-04T06:57:11.435Z,95959.97
2019-04-04T06:59:43.213Z,95956.19
2019-04-04T07:02:24.000Z,95949.34
2019-04-04T07:04:55.488Z,95948.50
2019-04-04T07:07:26.326Z,95946.27
2019-04-04T07:09:57.216Z,95951.20
2019-04-04T07:12:28.582Z,95955.86
2019-04-04T07:14:59.603Z,95946.89
2019-04-04T07:17:30.463Z,95944.14
2019-04-04T07:20:01.320Z,95943.42
2019-04-04T07:22:32.226Z,95943.05
2019-04-04T07:25:05.777Z,95944.95
2019-04-04T07:27:36.327Z,95950.09
2019-04-04T07:30:07.871Z,95945.14
2019-04-04T07:32:41.657Z,95950.05
2019-04-04T07:35:11.781Z,95949.39
2019-04-04T07:37:42.623Z,95956.17
2019-04-04T07:40:13.745Z,95949.47
2019-04-04T07:42:47.096Z,95937.73
2019-04-04T07:45:17.292Z,95938.63
2019-04-04T07:47:48.285Z,95929.36
2019-04-04T07:50:19.273Z,95942.03
2019-04-04T07:52:50.147Z,95934.07
2019-04-04T07:55:20.980Z,95933.49
2019-04-04T07:57:51.921Z,95940.98
2019-04-04T08:00:22.842Z,95944.19
2019-04-04T08:02:53.727Z,95938.92
2019-04-04T08:05:24.699Z,95946.91
2019-04-04T08:07:55.559Z,95942.78
2019-04-04T08:10:26.405Z,95943.02
2019-04-04T08:12:57.313Z,95930.21
2019-04-04T08:15:28.413Z,95935.68
2019-04-04T08:17:59.456Z,95941.84
2019-04-04T08:20:31.029Z,95950.67
2019-04-04T08:23:01.961Z,95943.73
2019-04-04T08:25:32.809Z,95939.33
2019-04-04T08:28:03.669Z,95944.92
2019-04-04T08:30:34.652Z,95930.20
2019-04-04T08:33:05.567Z,95920.92
2019-04-04T08:35:36.514Z,95918.56
2019-04-04T08:38:07.453Z,95923.64
2019-04-04T08:40:38.438Z,95930.33
2019-04-04T08:43:09.273Z,95928.39
2019-04-04T08:45:42.970Z,95928.23
2019-04-04T08:48:13.851Z,95927.57
2019-04-04T08:50:44.723Z,95925.96
2019-04-04T08:53:15.579Z,95923.53
2019-04-04T08:55:46.489Z,95924.89
2019-04-04T08:58:17.363Z,95923.32
2019-04-04T09:00:48.340Z,95921.93
2019-04-04T09:03:19.245Z,95933.48
2019-04-04T09:05:50.077Z,95933.81
2019-04-04T09:08:20.931Z,95943.91
2019-04-04T09:10:55.607Z,95948.11
2019-04-04T09:13:26.695Z,95950.86
2019-04-04T09:15:57.638Z,95953.72
2019-04-04T09:18:28.500Z,95955.70
2019-04-04T09:20:59.354Z,95950.25
2019-04-04T09:23:30.230Z,95947.69
2019-04-04T09:26:05.773Z,95948.31
2019-04-04T09:28:33.615Z,95954.49
2019-04-04T09:31:04.638Z,95954.51
2019-04-04T09:33:35.533Z,95965.20
2019-04-04T09:36:06.465Z,95961.32
2019-04-04T09:38:37.325Z,95947.02
2019-04-04T09:41:08.284Z,95941.57
2019-04-04T09:43:39.142Z,95934.48
2019-04-04T09:46:10.004Z,95934.14
2019-04-04T09:48:41.007Z,95937.39
2019-04-04T09:51:11.866Z,95931.63
2019-04-04T09:53:52.988Z,95932.95
2019-04-04T09:56:15.452Z,95944.36
2019-04-04T09:58:46.304Z,95953.38
2019-04-04T10:01:17.176Z,95961.15
2019-04-04T10:03:48.223Z,95959.95
2019-04-04T10:06:19.633Z,95953.89
2019-04-04T10:08:50.545Z,95955.98
2019-04-04T10:11:21.425Z,95965.11
2019-04-04T10:13:52.309Z,95953.42
2019-04-04T10:16:23.258Z,95966.08
2019-04-04T10:18:54.169Z,95970.80
2019-04-04T10:21:25.036Z,95969.19
2019-04-04T10:23:55.888Z,95958.20
2019-04-04T10:26:26.752Z,95961.13
2019-04-04T10:28:57.612Z,95961.89
2019-04-04T10:31:28.508Z,95966.03
2019-04-04T10:33:59.545Z,95962.32
2019-04-04T10:36:30.426Z,95955.63
2019-04-04T10:39:01.412Z,95971.20
2019-04-04T10:41:32.458Z,95966.26
2019-04-04T10:44:03.560Z,95979.80
2019-04-04T10:46:34.412Z,95974.65
2019-04-04T10:49:08.232Z,95967.80
2019-04-04T10:51:37.984Z,95966.69
2019-04-04T10:54:08.835Z,95969.14
2019-04-04T10:56:39.706Z,95966.57
2019-04-04T10:59:10.590Z,95960.34
2019-04-04T11:01:41.432Z,95970.80
2019-04-04T11:04:12.401Z,95963.83
2019-04-04T11:06:43.262Z,95967.11
2019-04-04T11:09:14.220Z,95962.16
2019-04-04T11:11:45.079Z,95959.99
2019-04-04T11:14:16.042Z,95946.41
2019-04-04T11:16:46.908Z,95940.13
2019-04-04T11:19:30.321Z,95949.68
2019-04-04T11:21:50.341Z,95943.66
2019-04-04T11:24:21.194Z,95952.77
2019-04-04T11:26:52.065Z,95956.08
2019-04-04T11:29:22.923Z,95951.44
2019-04-04T11:31:54.036Z,95957.75
2019-04-04T11:34:24.896Z,95961.95
2019-04-04T11:36:55.767Z,95959.12
2019-04-04T11:39:26.640Z,95956.84
2019-04-04T11:41:57.761Z,95959.95
2019-04-04T11:44:30.769Z,95967.70
2019-04-04T11:47:01.190Z,95957.66
2019-04-04T11:49:32.089Z,95954.39
2019-04-04T11:52:02.951Z,95957.46
2019-04-04T11:54:35.491Z,95947.20
2019-04-04T11:57:06.340Z,95938.58
2019-04-04T11:59:37.215Z,95925.41
2019-04-04T12:02:08.070Z,95930.25
2019-04-04T12:04:38.948Z,95934.71
2019-04-04T12:07:09.861Z,95936.86
2019-04-04T12:09:40.741Z,95937.91
2019-04-04T12:12:11.610Z,95933.31
2019-04-04T12:14:42.545Z,95929.91
2019-04-04T12:17:13.419Z,95929.55
2019-04-04T12:19:44.297Z,95928.84
2019-04-04T12:22:15.140Z,95932.50
2019-04-04T12:24:46.012Z,95927.09
2019-04-04T12:27:16.894Z,95922.03
2019-04-04T12:29:47.827Z,95925.99
2019-04-04T12:32:18.743Z,95933.08
2019-04-04T12:34:49.626Z,95947.95
2019-04-04T12:37:20.655Z,95945.62
2019-04-04T12:39:51.515Z,95957.80
2019-04-04T12:42:22.465Z,95954.73
2019-04-04T12:44:53.409Z,95954.67
2019-04-04T12:47:24.324Z,95969.08
2019-04-04T12:49:55.329Z,95972.27
2019-04-04T12:52:26.202Z,95980.76
2019-04-04T12:54:57.087Z,95997.83
2019-04-04T12:57:27.961Z,96009.61
2019-04-04T12:59:58.896Z,96018.22
2019-04-04T13:02:29.749Z,96009.66
2019-04-04T13:05:00.621Z,96020.48
2019-04-04T13:07:31.733Z,96025.10
2019-04-04T13:10:11.373Z,96031.23
2019-04-04T13:12:35.912Z,96021.05
2019-04-04T13:15:08.813Z,96027.25
2019-04-04T13:17:39.743Z,96020.29
2019-04-04T13:20:11.098Z,96020.30
2019-04-04T13:22:41.990Z,96012.97
2019-04-04T13:25:13.210Z,96034.13
2019-04-04T13:27:44.235Z,96020.36
2019-04-04T13:30:15.348Z,96020.31
2019-04-04T13:32:46.340Z,96015.27
2019-04-04T13:35:17.216Z,96016.15
2019-04-04T13:37:48.279Z,96017.72
2019-04-04T13:40:19.289Z,96037.16
2019-04-04T13:42:52.704Z,96030.09
2019-04-04T13:45:24.761Z,96043.52
2019-04-04T13:47:55.357Z,96056.79
2019-04-04T13:50:26.209Z,96051.16
2019-04-04T13:52:57.063Z,96074.89
2019-04-04T13:55:27.976Z,96081.27
2019-04-04T13:57:58.993Z,96106.77
2019-04-04T14:00:29.905Z,96106.28
2019-04-04T14:03:00.841Z,96104.94
2019-04-04T14:05:31.677Z,96103.79
2019-04-04T14:08:02.684Z,96124.34
2019-04-04T14:10:33.558Z,96128.25
2019-04-04T14:13:04.708Z,96146.09
2019-04-04T14:15:35.639Z,96149.64
2019-04-04T14:18:08.650Z,96156.90
2019-04-04T14:20:39.792Z,96142.34
2019-04-04T14:23:13.553Z,96157.06
2019-04-04T14:25:44.443Z,96155.42
2019-04-04T14:28:15.513Z,96148.27
2019-04-04T14:30:49.783Z,96176.95
2019-04-04T14:33:20.593Z,96178.69
2019-04-04T14:35:51.432Z,96185.73
2019-04-04T14:38:25.334Z,96179.34
2019-04-04T14:40:56.169Z,96171.83
2019-04-04T14:43:29.743Z,96173.08
2019-04-04T14:45:59.679Z,96178.64
2019-04-04T14:48:31.071Z,96185.05
2019-04-04T14:51:01.883Z,96197.41
2019-04-04T14:53:33.059Z,96194.47
2019-04-04T14:56:03.995Z,96195.84
2019-04-04T14:58:34.941Z,96217.50
2019-04-04T15:01:05.913Z,96223.95
2019-04-04T15:03:36.846Z,96219.73
2019-04-04T15:06:07.676Z,96215.16
2019-04-04T15:08:38.636Z,96211.46
2019-04-04T15:11:09.546Z,96227.31
2019-04-04T15:13:40.401Z,96231.23
2019-04-04T15:16:15.209Z,96241.31
2019-04-04T15:18:46.368Z,96234.95
2019-04-04T15:21:17.379Z,96244.96
2019-04-04T15:23:48.646Z,96258.17
2019-04-04T15:26:19.496Z,96246.77
2019-04-04T15:28:50.330Z,96239.09
2019-04-04T15:31:21.188Z,96222.72
2019-04-04T15:33:52.107Z,96232.45
2019-04-04T15:36:22.997Z,96243.90
2019-04-04T15:38:53.833Z,96237.61
2019-04-04T15:41:36.228Z,96250.70
2019-04-04T15:43:57.301Z,96244.39
2019-04-04T15:46:28.490Z,96255.58
2019-04-04T15:48:59.360Z,96264.13
2019-04-04T15:51:30.908Z,96251.87
2019-04-04T15:54:01.827Z,96258.81
2019-04-04T15:56:32.806Z,96256.59
2019-04-04T15:59:03.702Z,96271.49
2019-04-04T16:01:34.720Z,96268.84
2019-04-04T16:04:05.748Z,96283.73
2019-04-04T16:06:37.210Z,96288.14
2019-04-04T16:09:08.386Z,96297.01
2019-04-04T16:11:48.724Z,96305.73
2019-04-04T16:14:12.130Z,96308.30
2019-04-04T16:16:43.080Z,96305.33
2019-04-04T16:19:13.908Z,96304.34
2019-04-04T16:21:44.854Z,96292.66
2019-04-04T16:24:16.639Z,96295.81
2019-04-04T16:26:49.061Z,96295.72
2019-04-04T16:29:20.044Z,96306.22
2019-04-04T16:31:50.992Z,96301.95
2019-04-04T16:34:21.925Z,96294.88
2019-04-04T16:36:52.925Z,96295.72
2019-04-04T16:39:23.767Z,96295.34
2019-04-04T16:42:02.182Z,96287.02
2019-04-04T16:44:27.153Z,96299.48
2019-04-04T16:46:58.172Z,96299.57
2019-04-04T16:49:29.096Z,96297.44
2019-04-04T16:52:01.547Z,96312.58
2019-04-04T16:54:32.494Z,96330.41
2019-04-04T16:57:03.641Z,96327.70
2019-04-04T16:59:34.605Z,96351.92
2019-04-04T17:02:05.642Z,96358.29
2019-04-04T17:04:36.475Z,96361.20
2019-04-04T17:07:07.317Z,96361.05
2019-04-04T17:09:38.181Z,96376.08
2019-04-04T17:12:14.848Z,96370.89
2019-04-04T17:14:44.328Z,96375.63
2019-04-04T17:17:15.363Z,96377.09
2019-04-04T17:19:46.292Z,96377.09
2019-04-04T17:22:17.145Z,96370.98
2019-04-04T17:24:48.080Z,96369.94
2019-04-04T17:27:18.994Z,96372.91
2019-04-04T17:29:49.850Z,96377.62
2019-04-04T17:32:21.348Z,96374.75
2019-04-04T17:34:52.491Z,96384.78
2019-04-04T17:37:23.956Z,96392.19
2019-04-04T17:39:54.894Z,96392.09
2019-04-04T17:42:30.139Z,96393.55
2019-04-04T17:45:01.235Z,96405.28
2019-04-04T17:47:31.096Z,96412.83
2019-04-04T17:50:01.993Z,96432.74
2019-04-04T17:52:33.123Z,96435.31
2019-04-04T17:55:05.270Z,96441.87
2019-04-04T17:57:36.460Z,96455.30
2019-04-04T18:00:10.785Z,96454.27
2019-04-04T18:02:43.329Z,96461.88
2019-04-04T18:05:14.375Z,96478.54
2019-04-04T18:07:45.239Z,96480.30
2019-04-04T18:10:18.673Z,96499.62
2019-04-04T18:12:49.585Z,96526.86
2019-04-04T18:15:20.739Z,96517.80
2019-04-04T18:17:51.640Z,96516.55
2019-04-04T18:20:22.639Z,96511.74
2019-04-04T18:22:53.484Z,96510.98
2019-04-04T18:25:24.327Z,96519.10
2019-04-04T18:27:55.219Z,96514.42
2019-04-04T18:30:26.185Z,96511.22
2019-04-04T18:32:57.134Z,96529.62
2019-04-04T18:35:28.229Z,96537.66
2019-04-04T18:37:59.106Z,96533.73
2019-04-04T18:40:29.981Z,96533.84
2019-04-04T18:43:00.808Z,96539.67
2019-04-04T18:45:31.749Z,96547.52
2019-04-04T18:48:02.590Z,96544.05
2019-04-04T18:50:33.512Z,96548.28
2019-04-04T18:53:04.429Z,96552.20
2019-04-04T18:55:35.300Z,96553.22
2019-04-04T18:58:06.124Z,96544.23
2019-04-04T19:00:37.278Z,96558.73
2019-04-04T19:03:08.499Z,96552.86
2019-04-04T19:05:39.878Z,96537.20
2019-04-04T19:08:10.734Z,96526.08
2019-04-04T19:10:41.652Z,96524.81
2019-04-04T19:13:12.542Z,96516.30
2019-04-04T19:15:43.499Z,96530.39
2019-04-04T19:18:14.359Z,96551.94
2019-04-04T19:20:45.269Z,96556.98
2019-04-04T19:23:16.209Z,96538.86
2019-04-04T19:25:47.114Z,96533.67
2019-04-04T19:28:18.062Z,96529.78
2019-04-04T19:30:49.129Z,96528.95
2019-04-04T19:33:20.071Z,96534.27
2019-04-04T19:35:51.022Z,96537.62
2019-04-04T19:38:21.951Z,96557.88
2019-04-04T19:40:52.800Z,96562.14
2019-04-04T19:43:23.646Z,96571.02
2019-04-04T19:45:54.469Z,96574.25
2019-04-04T19:48:25.321Z,96594.27
2019-04-04T19:50:56.173Z,96616.72
2019-04-04T19:53:27.024Z,96637.67
2019-04-04T19:55:57.903Z,96634.63
2019-04-04T19:58:28.765Z,96643.38
2019-04-04T20:00:59.766Z,96650.89
2019-04-04T20:03:30.638Z,96660.13
2019-04-04T20:06:01.486Z,96669.02
2019-04-04T20:08:32.391Z,96678.25
2019-04-04T20:11:03.333Z,96668.10
2019-04-04T20:13:34.246Z,96677.79
2019-04-04T20:16:05.166Z,96691.95
2019-04-04T20:18:36.018Z,96678.91
2019-04-04T20:21:06.898Z,96674.12
2019-04-04T20:23:37.742Z,96653.13
2019-04-04T20:26:08.584Z,96662.55
2019-04-04T20:28:40.207Z,96655.55
2019-04-04T20:31:11.229Z,96650.23
2019-04-04T20:33:42.216Z,96641.17
2019-04-04T20:36:13.118Z,96638.13
2019-04-04T20:38:44.100Z,96631.73
2019-04-04T20:41:16.879Z,96630.67
2019-04-04T20:43:47.770Z,96625.26
2019-04-04T20:46:18.644Z,96638.58
2019-04-04T20:48:49.484Z,96646.66
2019-04-04T20:51:20.320Z,96641.70
2019-04-04T20:53:51.162Z,96655.16
2019-04-04T20:56:21.990Z,96644.35
2019-04-04T20:58:52.869Z,96639.34
2019-04-04T21:01:23.721Z,96658.89
2019-04-04T21:03:54.606Z,96651.44
2019-04-04T21:06:25.554Z,96644.73
2019-04-04T21:08:56.540Z,96661.17
2019-04-04T21:11:27.424Z,96644.06
2019-04-04T21:13:58.287Z,96647.49
2019-04-04T21:16:30.173Z,96664.45
2019-04-04T21:19:01.279Z,96660.70
2019-04-04T21:21:32.162Z,96661.02
2019-04-04T21:24:03.029Z,96672.59
2019-04-04T21:26:36.926Z,96688.50
2019-04-04T21:29:07.785Z,96693.16
2019-04-04T21:31:38.719Z,96690.78
2019-04-04T21:34:09.669Z,96700.83
2019-04-04T21:36:40.697Z,96699.15
2019-04-04T21:39:11.571Z,96703.13
2019-04-04T21:41:42.389Z,96703.41
2019-04-04T21:44:13.307Z,96704.50
2019-04-04T21:46:44.110Z,96716.58
2019-04-04T21:49:15.091Z,96728.28
2019-04-04T21:51:45.931Z,96722.80
2019-04-04T21:54:16.763Z,96731.20
2019-04-04T21:56:47.612Z,96731.13
2019-04-04T21:59:18.459Z,96726.61
2019-04-04T22:01:49.293Z,96732.16
2019-04-04T22:04:20.147Z,96737.20
2019-04-04T22:06:51.994Z,96743.05
2019-04-04T22:09:22.929Z,96743.62
2019-04-04T22:11:53.760Z,96734.64
2019-04-04T22:14:24.640Z,96741.70
2019-04-04T22:16:55.480Z,96740.02
2019-04-04T22:19:26.321Z,96735.01
2019-04-04T22:21:57.321Z,96740.38
2019-04-04T22:24:30.379Z,96740.16
2019-04-04T22:27:03.330Z,96733.89
2019-04-04T22:29:34.253Z,96737.31
2019-04-04T22:32:05.131Z,96740.23
2019-04-04T22:34:35.971Z,96737.57
2019-04-04T22:37:06.783Z,96750.96
2019-04-04T22:39:37.615Z,96752.32
2019-04-04T22:42:08.486Z,96751.41
2019-04-04T22:44:39.327Z,96753.94
2019-04-04T22:47:10.244Z,96754.39
2019-04-04T22:49:41.131Z,96762.89
2019-04-04T22:52:12.039Z,96777.80
2019-04-04T22:54:42.876Z,96778.88
2019-04-04T22:57:13.737Z,96780.91
2019-04-04T22:59:44.561Z,96791.64
2019-04-04T23:02:15.459Z,96786.47
2019-04-04T23:04:46.464Z,96793.16
2019-04-04T23:07:17.323Z,96784.11
2019-04-04T23:09:48.158Z,96781.66
2019-04-04T23:12:19.084Z,96795.42
2019-04-04T23:14:49.928Z,96799.63
2019-04-04T23:17:20.952Z,96792.91
2019-04-04T23:19:51.786Z,96784.85
2019-04-04T23:22:22.622Z,96782.56
2019-04-04T23:24:53.460Z,96783.46
2019-04-04T23:27:25.466Z,96782.33
2019-04-04T23:29:56.265Z,96777.16
2019-04-04T23:32:27.088Z,96766.75
2019-04-04T23:34:57.994Z,96773.34
2019-04-04T23:37:28.844Z,96761.31
2019-04-04T23:39:59.706Z,96758.86
2019-04-04T23:42:30.594Z,96759.80
2019-04-04T23:45:01.711Z,96764.29
2019-04-04T23:47:42.593Z,96759.70
2019-04-04T23:50:08.251Z,96754.69
2019-04-04T23:52:39.144Z,96755.66
2019-04-04T23:55:10.235Z,96746.93
2019-04-04T23:57:41.061Z,96737.78
